Time;durP1;ratioP1;P1;durP2;ratioP2;P2;SDS_P1;SDS_P2;PMS_P1;PMS_P2;Temp;Humidity;BMP_temperature;BMP_pressure;BME280_temperature;BME280_humidity;BME280_pressure;Samples;Min_cycle;Max_cycle;Signal;HPM_P1;HPM_P2
2021/11/16 00:00:39;;;;;;;2.45;0.80;;;;;;;;;;5011635;28;20480;-68
2021/11/16 00:03:15;;;;;;;0.98;0.20;;;;;;;;;;5011830;28;20521;-71
2021/11/16 00:05:40;;;;;;;1.08;0.20;;;;;;;;;;4995059;28;20397;-68
2021/11/16 00:08:06;;;;;;;1.58;0.22;;;;;;;;;;5011533;28;20049;-71
2021/11/16 00:10:32;;;;;;;2.67;0.63;;;;;;;;;;4994813;28;20046;-68
2021/11/16 00:12:58;;;;;;;1.88;0.50;;;;;;;;;;5011286;28;20488;-68
2021/11/16 00:15:23;;;;;;;1.25;0.35;;;;;;;;;;5011834;28;20034;-69
2021/11/16 00:17:49;;;;;;;1.30;0.17;;;;;;;;;;5011865;28;20504;-68
2021/11/16 00:20:15;;;;;;;2.35;0.38;;;;;;;;;;5011328;28;20381;-69
2021/11/16 00:22:43;;;;;;;0.77;0.20;;;;;;;;;;5014746;28;20068;-69
2021/11/16 00:27:35;;;;;;;1.30;0.35;;;;;;;;;;5015130;28;20046;-68
2021/11/16 00:30:11;;;;;;;1.02;0.35;;;;;;;;;;5015403;28;20540;-71
2021/11/16 00:32:36;;;;;;;0.88;0.17;;;;;;;;;;5015172;28;20022;-68
2021/11/16 00:35:02;;;;;;;1.60;0.20;;;;;;;;;;5036863;28;20036;-69
2021/11/16 00:37:29;;;;;;;3.78;0.50;;;;;;;;;;5056957;28;20582;-69
2021/11/16 00:39:55;;;;;;;1.25;0.30;;;;;;;;;;5057012;28;20099;-68
2021/11/16 00:42:22;;;;;;;1.95;0.30;;;;;;;;;;5057189;28;20024;-70
2021/11/16 00:44:47;;;;;;;1.90;0.40;;;;;;;;;;5057019;28;20024;-68
2021/11/16 00:47:14;;;;;;;1.47;0.30;;;;;;;;;;5055481;28;20021;-69
2021/11/16 00:49:39;;;;;;;1.13;0.30;;;;;;;;;;5056847;28;20234;-68
2021/11/16 00:52:06;;;;;;;1.83;0.52;;;;;;;;;;5056785;28;20040;-71
2021/11/16 00:54:32;;;;;;;6.22;0.40;;;;;;;;;;5056828;28;20013;-68
2021/11/16 00:56:57;;;;;;;3.05;0.60;;;;;;;;;;5055422;28;20024;-70
2021/11/16 00:59:22;;;;;;;1.17;0.20;;;;;;;;;;5056429;28;20025;-69
2021/11/16 01:01:47;;;;;;;0.85;0.20;;;;;;;;;;5055689;28;20048;-68
2021/11/16 01:04:17;;;;;;;1.87;0.37;;;;;;;;;;5056537;28;20096;-68
2021/11/16 01:06:42;;;;;;;1.50;0.28;;;;;;;;;;5056530;28;20593;-68
2021/11/16 01:09:07;;;;;;;1.92;0.32;;;;;;;;;;5056308;28;20041;-69
2021/11/16 01:11:33;;;;;;;2.78;0.30;;;;;;;;;;5056406;28;20045;-68
2021/11/16 01:13:58;;;;;;;0.93;0.20;;;;;;;;;;5056151;28;20041;-70
2021/11/16 01:16:23;;;;;;;0.60;0.38;;;;;;;;;;5056198;28;20126;-67
2021/11/16 01:19:01;;;;;;;1.73;0.30;;;;;;;;;;5056309;28;20051;-70
2021/11/16 01:21:26;;;;;;;1.80;0.55;;;;;;;;;;5056215;28;20099;-68
2021/11/16 01:24:00;;;;;;;2.67;0.35;;;;;;;;;;5055966;28;20442;-69
2021/11/16 01:26:27;;;;;;;;;;;;;;;;;;5056326;28;20036;-68
2021/11/16 01:28:54;;;;;;;2.60;0.55;;;;;;;;;;5056034;28;19946;-68
2021/11/16 01:31:19;;;;;;;1.80;0.30;;;;;;;;;;5056243;28;20028;-69
2021/11/16 01:34:00;;;;;;;2.85;0.40;;;;;;;;;;5054316;28;20021;-69
2021/11/16 01:36:25;;;;;;;1.60;0.35;;;;;;;;;;5055939;28;20020;-69
2021/11/16 01:38:52;;;;;;;1.83;0.65;;;;;;;;;;5055709;28;20043;-68
2021/11/16 01:41:19;;;;;;;3.42;0.30;;;;;;;;;;5056112;28;20017;-71
2021/11/16 01:43:44;;;;;;;1.77;0.25;;;;;;;;;;5054456;28;20566;-67
2021/11/16 01:46:20;;;;;;;1.17;0.30;;;;;;;;;;5055840;28;20025;-71
2021/11/16 01:48:48;;;;;;;1.15;0.50;;;;;;;;;;5055671;28;20036;-69
2021/11/16 01:51:15;;;;;;;2.17;0.50;;;;;;;;;;5055861;28;20024;-68
2021/11/16 01:53:48;;;;;;;1.20;0.30;;;;;;;;;;5055377;28;20391;-70
2021/11/16 01:56:14;;;;;;;3.08;0.30;;;;;;;;;;5055602;28;20490;-67
2021/11/16 01:58:41;;;;;;;3.15;0.28;;;;;;;;;;5055695;28;20017;-70
2021/11/16 02:01:06;;;;;;;1.05;0.30;;;;;;;;;;5063016;22;20049;-67
2021/11/16 02:03:32;;;;;;;1.30;0.20;;;;;;;;;;5055674;28;20017;-69
2021/11/16 02:06:12;;;;;;;0.63;0.35;;;;;;;;;;5054056;28;20717;-68
2021/11/16 02:08:38;;;;;;;2.78;0.50;;;;;;;;;;5055545;28;20025;-68
2021/11/16 02:11:03;;;;;;;0.95;0.38;;;;;;;;;;5055216;28;20032;-69
2021/11/16 02:13:29;;;;;;;1.35;0.30;;;;;;;;;;5055427;28;20056;-68
2021/11/16 02:15:55;;;;;;;0.65;0.40;;;;;;;;;;5053883;28;20052;-69
2021/11/16 02:18:20;;;;;;;1.90;0.60;;;;;;;;;;5053830;28;20040;-68
2021/11/16 02:20:48;;;;;;;5.93;0.47;;;;;;;;;;5055294;28;20043;-70
2021/11/16 02:23:14;;;;;;;1.30;0.30;;;;;;;;;;5055233;28;20710;-67
2021/11/16 02:25:44;;;;;;;1.73;0.30;;;;;;;;;;5053972;28;20060;-69
2021/11/16 02:28:09;;;;;;;6.18;1.00;;;;;;;;;;5053685;28;20079;-68
2021/11/16 02:30:34;;;;;;;1.35;0.30;;;;;;;;;;5054965;28;20456;-70
2021/11/16 02:33:00;;;;;;;1.75;0.57;;;;;;;;;;5054636;28;20033;-69
2021/11/16 02:35:37;;;;;;;3.20;0.60;;;;;;;;;;5054836;28;20017;-70
2021/11/16 02:38:03;;;;;;;0.70;0.47;;;;;;;;;;5054757;28;20013;-67
2021/11/16 02:40:28;;;;;;;3.25;0.77;;;;;;;;;;5054905;28;20020;-68
2021/11/16 02:42:56;;;;;;;0.77;0.20;;;;;;;;;;5054273;28;20020;-69
2021/11/16 02:45:23;;;;;;;1.92;0.50;;;;;;;;;;5053673;28;20064;-67
2021/11/16 02:47:49;;;;;;;1.55;0.30;;;;;;;;;;5054242;28;20064;-69
2021/11/16 02:50:15;;;;;;;0.98;0.40;;;;;;;;;;5053556;28;20101;-68
2021/11/16 02:52:41;;;;;;;0.98;0.30;;;;;;;;;;5054318;28;20479;-68
2021/11/16 02:55:06;;;;;;;2.58;0.20;;;;;;;;;;5054197;28;20021;-68
2021/11/16 02:57:32;;;;;;;1.77;0.57;;;;;;;;;;5054385;28;20024;-69
2021/11/16 02:59:57;;;;;;;1.38;0.20;;;;;;;;;;5054291;28;20021;-67
2021/11/16 03:02:22;;;;;;;2.75;0.28;;;;;;;;;;5054232;28;20128;-70
2021/11/16 03:04:48;;;;;;;2.22;0.40;;;;;;;;;;5054137;28;20479;-67
2021/11/16 03:07:28;;;;;;;1.13;0.20;;;;;;;;;;5054423;28;20048;-69
2021/11/16 03:09:54;;;;;;;1.13;0.20;;;;;;;;;;5053902;28;20020;-68
2021/11/16 03:12:19;;;;;;;2.78;0.47;;;;;;;;;;5054193;28;20061;-67
2021/11/16 03:14:45;;;;;;;1.60;0.22;;;;;;;;;;5053978;28;20027;-68
2021/11/16 03:17:10;;;;;;;0.35;0.30;;;;;;;;;;5054117;28;20452;-68
2021/11/16 03:19:36;;;;;;;3.15;0.30;;;;;;;;;;5053915;28;20013;-69
2021/11/16 03:22:01;;;;;;;1.80;0.35;;;;;;;;;;5053782;28;20045;-67
2021/11/16 03:24:32;;;;;;;3.15;0.28;;;;;;;;;;5053859;28;20033;-69
2021/11/16 03:26:58;;;;;;;1.20;0.25;;;;;;;;;;5053587;28;20012;-67
2021/11/16 03:29:25;;;;;;;1.75;0.43;;;;;;;;;;5053988;28;20027;-69
2021/11/16 03:31:53;;;;;;;1.27;0.30;;;;;;;;;;5053835;28;20456;-68
2021/11/16 03:34:18;;;;;;;1.63;0.20;;;;;;;;;;5053679;28;20371;-69
2021/11/16 03:36:45;;;;;;;1.90;0.32;;;;;;;;;;5053832;28;20025;-67
2021/11/16 03:39:11;;;;;;;0.90;0.20;;;;;;;;;;5053666;28;20013;-70
2021/11/16 03:41:37;;;;;;;1.85;0.30;;;;;;;;;;5052498;28;20098;-67
2021/11/16 03:44:02;;;;;;;2.28;0.40;;;;;;;;;;5053687;28;20045;-71
2021/11/16 03:46:28;;;;;;;1.33;0.30;;;;;;;;;;5053371;28;20017;-68
2021/11/16 03:48:53;;;;;;;1.20;0.30;;;;;;;;;;5053476;28;20534;-69
2021/11/16 03:51:19;;;;;;;1.05;0.40;;;;;;;;;;5053355;28;20566;-68
2021/11/16 03:53:44;;;;;;;1.88;0.52;;;;;;;;;;5053556;28;20017;-68
2021/11/16 03:56:10;;;;;;;0.60;0.22;;;;;;;;;;5053247;28;20021;-68
2021/11/16 03:58:37;;;;;;;2.88;0.30;;;;;;;;;;5053412;28;20028;-68
2021/11/16 04:01:04;;;;;;;1.15;0.25;;;;;;;;;;5052978;28;20041;-70
2021/11/16 04:03:31;;;;;;;0.68;0.40;;;;;;;;;;5053315;28;20063;-67
2021/11/16 04:05:57;;;;;;;1.65;0.30;;;;;;;;;;5053224;28;20071;-69
2021/11/16 04:08:22;;;;;;;1.63;0.40;;;;;;;;;;5052142;28;20025;-67
2021/11/16 04:10:49;;;;;;;2.17;0.15;;;;;;;;;;5053242;28;20025;-69
2021/11/16 04:13:14;;;;;;;2.25;0.20;;;;;;;;;;5052829;28;20025;-68
2021/11/16 04:15:40;;;;;;;1.05;0.35;;;;;;;;;;5053264;28;20120;-69
2021/11/16 04:18:06;;;;;;;1.42;0.20;;;;;;;;;;5052800;28;20028;-67
2021/11/16 04:20:38;;;;;;;1.88;0.50;;;;;;;;;;5053288;28;20021;-70
2021/11/16 04:23:04;;;;;;;0.35;0.17;;;;;;;;;;5053013;28;20025;-68
2021/11/16 04:25:32;;;;;;;0.70;0.50;;;;;;;;;;5053324;28;20017;-70
2021/11/16 04:27:58;;;;;;;1.77;0.40;;;;;;;;;;5051453;28;20521;-67
2021/11/16 04:30:25;;;;;;;0.95;0.30;;;;;;;;;;5053001;28;20550;-68
2021/11/16 04:32:50;;;;;;;1.13;0.40;;;;;;;;;;5052883;28;20013;-69
2021/11/16 04:35:16;;;;;;;0.82;0.30;;;;;;;;;;5053419;28;20028;-67
2021/11/16 04:37:42;;;;;;;2.65;0.40;;;;;;;;;;5053138;28;20104;-68
2021/11/16 04:40:08;;;;;;;1.42;0.20;;;;;;;;;;5052658;28;20013;-67
2021/11/16 04:42:33;;;;;;;2.75;0.50;;;;;;;;;;5052903;28;20053;-69
2021/11/16 04:44:59;;;;;;;1.90;0.25;;;;;;;;;;5052800;28;20328;-67
2021/11/16 04:47:44;;;;;;;1.57;0.23;;;;;;;;;;5053039;28;20023;-69
2021/11/16 04:50:22;;;;;;;1.65;0.40;;;;;;;;;;5051222;28;20269;-67
2021/11/16 05:03:16;;;;;;;2.00;0.30;;;;;;;;;;5052854;28;20079;-69
2021/11/16 05:05:41;;;;;;;1.47;0.30;;;;;;;;;;5052617;28;20025;-68
2021/11/16 05:08:07;;;;;;;1.52;0.32;;;;;;;;;;5053305;28;20811;-68
2021/11/16 05:10:32;;;;;;;2.40;0.40;;;;;;;;;;5056263;28;20066;-67
2021/11/16 05:12:59;;;;;;;0.90;0.20;;;;;;;;;;5056146;28;20025;-70
2021/11/16 05:15:24;;;;;;;1.92;0.38;;;;;;;;;;5054800;28;20026;-67
2021/11/16 05:17:56;;;;;;;1.63;0.40;;;;;;;;;;5056354;28;20019;-69
2021/11/16 05:20:22;;;;;;;2.00;0.30;;;;;;;;;;5055941;28;20440;-68
2021/11/16 05:22:49;;;;;;;0.38;0.20;;;;;;;;;;5054870;28;20043;-68
2021/11/16 05:25:15;;;;;;;2.05;0.40;;;;;;;;;;5055794;28;20058;-67
2021/11/16 05:27:41;;;;;;;2.38;0.45;;;;;;;;;;5056131;28;20016;-67
2021/11/16 05:30:07;;;;;;;2.25;0.25;;;;;;;;;;5055758;28;20025;-67
2021/11/16 05:32:33;;;;;;;0.85;0.22;;;;;;;;;;5056181;28;20040;-67
2021/11/16 05:34:59;;;;;;;1.65;0.65;;;;;;;;;;5055775;28;20013;-68
2021/11/16 05:37:24;;;;;;;2.00;0.30;;;;;;;;;;5055878;28;20155;-67
2021/11/16 05:39:49;;;;;;;1.10;0.20;;;;;;;;;;5055587;28;20021;-68
2021/11/16 05:42:14;;;;;;;0.95;0.22;;;;;;;;;;5055872;28;20699;-67
2021/11/16 05:44:42;;;;;;;2.83;0.40;;;;;;;;;;5055582;28;20032;-69
2021/11/16 05:47:08;;;;;;;2.35;0.30;;;;;;;;;;5055580;28;20066;-67
2021/11/16 05:49:34;;;;;;;2.80;0.28;;;;;;;;;;5055588;28;20012;-68
2021/11/16 05:52:00;;;;;;;1.42;0.30;;;;;;;;;;5055430;28;20017;-67
2021/11/16 05:54:30;;;;;;;3.80;0.55;;;;;;;;;;5055260;28;20017;-69
2021/11/16 05:56:55;;;;;;;0.73;0.20;;;;;;;;;;5055494;28;20024;-67
2021/11/16 05:59:20;;;;;;;2.27;0.40;;;;;;;;;;5055670;28;20391;-69
2021/11/16 06:01:46;;;;;;;4.32;0.40;;;;;;;;;;5054603;28;20296;-67
2021/11/16 06:04:12;;;;;;;1.65;0.40;;;;;;;;;;5055290;28;20032;-67
2021/11/16 06:06:39;;;;;;;2.75;0.60;;;;;;;;;;5055241;28;20361;-68
2021/11/16 06:09:06;;;;;;;1.65;0.43;;;;;;;;;;5055054;28;20017;-66
2021/11/16 06:11:33;;;;;;;0.63;0.10;;;;;;;;;;5055184;28;20428;-70
2021/11/16 06:13:58;;;;;;;1.52;0.35;;;;;;;;;;5054908;28;20025;-67
2021/11/16 06:16:24;;;;;;;1.95;0.30;;;;;;;;;;5054976;28;20025;-66
2021/11/16 06:18:51;;;;;;;2.05;0.45;;;;;;;;;;5054799;28;20021;-68
2021/11/16 06:21:16;;;;;;;2.00;0.80;;;;;;;;;;5055006;28;20464;-67
2021/11/16 06:23:41;;;;;;;3.03;0.40;;;;;;;;;;5055321;28;20036;-69
2021/11/16 06:26:06;;;;;;;0.63;0.20;;;;;;;;;;5054953;28;20040;-67
2021/11/16 06:28:33;;;;;;;2.15;0.30;;;;;;;;;;5054753;28;20131;-68
2021/11/16 06:30:59;;;;;;;1.20;0.25;;;;;;;;;;5054720;28;20162;-67
2021/11/16 06:33:24;;;;;;;1.75;0.30;;;;;;;;;;5054801;28;20379;-66
2021/11/16 06:35:50;;;;;;;2.37;0.43;;;;;;;;;;5054722;28;20032;-68
2021/11/16 06:38:16;;;;;;;0.60;0.35;;;;;;;;;;5053580;28;20328;-67
2021/11/16 06:40:47;;;;;;;0.88;0.20;;;;;;;;;;5054446;28;20456;-67
2021/11/16 06:43:18;;;;;;;1.35;0.30;;;;;;;;;;5054127;28;20021;-67
2021/11/16 06:45:43;;;;;;;1.23;0.30;;;;;;;;;;5054677;28;20062;-70
2021/11/16 06:48:08;;;;;;;2.35;0.30;;;;;;;;;;5054276;28;20017;-66
2021/11/16 06:50:35;;;;;;;1.70;0.30;;;;;;;;;;5054601;28;20472;-69
2021/11/16 06:53:00;;;;;;;1.13;0.20;;;;;;;;;;5054016;28;20323;-67
2021/11/16 06:55:25;;;;;;;1.60;0.30;;;;;;;;;;5054369;28;20360;-67
2021/11/16 06:57:51;;;;;;;2.10;0.55;;;;;;;;;;5054349;28;20262;-66
2021/11/16 07:00:16;;;;;;;1.85;0.28;;;;;;;;;;5054120;28;20017;-66
2021/11/16 07:02:43;;;;;;;1.67;0.43;;;;;;;;;;5054078;28;20048;-66
2021/11/16 07:05:09;;;;;;;1.60;0.22;;;;;;;;;;5056093;28;20021;-67
2021/11/16 07:07:40;;;;;;;2.58;0.40;;;;;;;;;;5063905;28;20025;-68
2021/11/16 07:10:06;;;;;;;1.92;0.30;;;;;;;;;;5053620;28;20032;-66
2021/11/16 07:12:31;;;;;;;2.45;0.30;;;;;;;;;;5053875;28;20021;-69
2021/11/16 07:14:56;;;;;;;2.03;0.30;;;;;;;;;;5053942;28;20370;-66
2021/11/16 07:17:23;;;;;;;2.97;0.35;;;;;;;;;;5054098;28;20024;-68
2021/11/16 07:19:55;;;;;;;2.50;0.30;;;;;;;;;;5053917;28;20017;-67
2021/11/16 07:22:23;;;;;;;1.08;0.13;;;;;;;;;;5053732;28;20044;-68
2021/11/16 07:24:52;;;;;;;1.27;0.38;;;;;;;;;;5053606;28;20102;-66
2021/11/16 07:27:18;;;;;;;3.20;0.30;;;;;;;;;;5053626;28;20093;-68
2021/11/16 07:29:46;;;;;;;1.95;0.57;;;;;;;;;;5053576;28;20028;-66
2021/11/16 07:32:13;;;;;;;4.70;0.60;;;;;;;;;;5053281;28;20013;-67
2021/11/16 07:34:40;;;;;;;1.05;0.10;;;;;;;;;;5056645;28;20021;-67
2021/11/16 07:37:05;;;;;;;2.05;0.20;;;;;;;;;;5055031;28;20020;-66
2021/11/16 07:39:43;;;;;;;2.47;0.50;;;;;;;;;;5053695;28;20017;-68
2021/11/16 07:42:08;;;;;;;2.88;0.20;;;;;;;;;;5052168;28;20021;-66
2021/11/16 07:44:34;;;;;;;2.60;0.40;;;;;;;;;;5054744;28;20032;-68
2021/11/16 07:46:59;;;;;;;1.05;0.38;;;;;;;;;;5053380;28;20036;-66
2021/11/16 07:49:25;;;;;;;3.65;0.38;;;;;;;;;;5053591;28;20021;-68
2021/11/16 07:51:51;;;;;;;2.40;0.47;;;;;;;;;;5057289;28;20021;-67
2021/11/16 07:54:21;;;;;;;1.40;0.52;;;;;;;;;;5062029;28;20017;-68
2021/11/16 07:56:46;;;;;;;0.68;0.13;;;;;;;;;;5053305;28;20017;-67
2021/11/16 07:59:13;;;;;;;1.80;0.30;;;;;;;;;;5053346;28;20392;-68
2021/11/16 08:01:57;;;;;;;1.05;0.40;;;;;;;;;;5053074;28;20305;-66
2021/11/16 08:04:27;;;;;;;2.75;0.35;;;;;;;;;;5053346;28;20052;-66
2021/11/16 08:12:10;;;;;;;1.85;0.50;;;;;;;;;;5053312;28;20151;-68
2021/11/16 08:14:35;;;;;;;1.75;0.40;;;;;;;;;;5052844;28;20025;-66
2021/11/16 08:17:02;;;;;;;3.08;0.63;;;;;;;;;;5053031;28;20039;-67
2021/11/16 08:19:31;;;;;;;3.42;0.45;;;;;;;;;;5053004;28;20028;-68
2021/11/16 08:21:59;;;;;;;1.20;0.20;;;;;;;;;;5052840;28;20028;-66
2021/11/16 08:24:26;;;;;;;2.58;0.93;;;;;;;;;;5053066;28;20032;-69
2021/11/16 08:26:52;;;;;;;2.40;0.35;;;;;;;;;;5052842;28;20028;-66
2021/11/16 08:29:27;;;;;;;1.35;0.13;;;;;;;;;;5055139;28;20030;-68
2021/11/16 08:32:03;;;;;;;2.20;0.32;;;;;;;;;;5057596;28;20023;-66
2021/11/16 08:34:30;;;;;;;1.17;0.28;;;;;;;;;;5059404;28;20343;-67
2021/11/16 08:36:55;;;;;;;0.90;0.40;;;;;;;;;;5053098;28;20029;-67
2021/11/16 08:39:30;;;;;;;3.05;0.30;;;;;;;;;;5052925;28;20023;-65
2021/11/16 08:41:55;;;;;;;1.10;0.20;;;;;;;;;;5060425;28;20021;-68
2021/11/16 08:44:22;;;;;;;0.20;0.20;;;;;;;;;;5076679;28;20070;-66
2021/11/16 08:46:48;;;;;;;2.30;0.40;;;;;;;;;;5076374;28;20028;-68
2021/11/16 08:49:24;;;;;;;3.17;0.52;;;;;;;;;;5056602;28;20021;-66
2021/11/16 08:51:50;;;;;;;1.23;0.43;;;;;;;;;;5056704;28;20017;-67
2021/11/16 08:54:22;;;;;;;1.75;0.50;;;;;;;;;;5055215;28;20070;-66
2021/11/16 08:56:47;;;;;;;2.10;0.43;;;;;;;;;;5056579;28;20020;-65
2021/11/16 08:59:14;;;;;;;1.52;0.30;;;;;;;;;;5056589;28;20518;-67
2021/11/16 09:01:39;;;;;;;1.73;0.35;;;;;;;;;;5056497;28;20037;-66
2021/11/16 09:04:06;;;;;;;1.30;0.40;;;;;;;;;;5056193;28;20447;-67
2021/11/16 09:06:32;;;;;;;1.75;0.20;;;;;;;;;;5056579;28;20096;-66
2021/11/16 09:09:06;;;;;;;2.95;0.43;;;;;;;;;;5056334;28;20082;-66
2021/11/16 09:11:31;;;;;;;1.73;0.28;;;;;;;;;;5054971;28;20501;-66
2021/11/16 09:13:57;;;;;;;2.25;0.60;;;;;;;;;;5056200;28;20021;-68
2021/11/16 09:16:28;;;;;;;3.50;0.65;;;;;;;;;;5056189;28;20095;-66
2021/11/16 09:18:57;;;;;;;3.83;0.30;;;;;;;;;;5056207;28;20025;-69
2021/11/16 09:21:26;;;;;;;1.13;0.13;;;;;;;;;;5056111;28;20023;-66
2021/11/16 09:23:52;;;;;;;1.70;0.63;;;;;;;;;;5064722;28;20020;-66
2021/11/16 09:26:25;;;;;;;1.55;0.50;;;;;;;;;;5074119;28;20026;-66
2021/11/16 09:29:00;;;;;;;1.73;0.30;;;;;;;;;;5055814;28;20027;-66
2021/11/16 09:31:28;;;;;;;2.47;0.57;;;;;;;;;;5059843;28;20344;-68
2021/11/16 09:33:56;;;;;;;1.30;0.22;;;;;;;;;;5067848;28;20021;-66
2021/11/16 09:36:26;;;;;;;1.48;0.20;;;;;;;;;;5056195;28;20025;-68
2021/11/16 09:38:56;;;;;;;1.50;0.35;;;;;;;;;;5054318;28;20021;-66
2021/11/16 09:41:29;;;;;;;2.40;0.30;;;;;;;;;;5055701;28;20055;-69
2021/11/16 09:43:56;;;;;;;2.50;0.40;;;;;;;;;;5055644;28;20099;-66
2021/11/16 09:46:21;;;;;;;3.50;0.43;;;;;;;;;;5055521;28;20056;-67
2021/11/16 09:48:54;;;;;;;3.17;0.77;;;;;;;;;;5055925;28;20060;-67
2021/11/16 09:51:20;;;;;;;1.33;0.35;;;;;;;;;;5061417;28;20028;-66
2021/11/16 09:53:46;;;;;;;3.05;0.82;;;;;;;;;;5054605;28;20017;-68
2021/11/16 09:56:22;;;;;;;2.50;0.55;;;;;;;;;;5055653;28;20036;-66
2021/11/16 09:58:56;;;;;;;2.88;0.40;;;;;;;;;;5055606;28;20013;-68
2021/11/16 10:01:25;;;;;;;0.85;0.17;;;;;;;;;;5054065;28;20388;-66
2021/11/16 10:04:04;;;;;;;2.15;0.32;;;;;;;;;;5055042;28;20467;-66
2021/11/16 10:06:30;;;;;;;1.25;0.30;;;;;;;;;;5055328;28;20025;-68
2021/11/16 10:08:56;;;;;;;1.60;0.22;;;;;;;;;;5054841;28;20032;-66
2021/11/16 10:11:21;;;;;;;2.38;0.50;;;;;;;;;;5054155;28;20047;-68
2021/11/16 10:13:46;;;;;;;1.95;0.40;;;;;;;;;;5055094;28;20484;-66
2021/11/16 10:16:12;;;;;;;2.70;0.55;;;;;;;;;;5054957;28;20063;-68
2021/11/16 10:18:38;;;;;;;0.57;0.20;;;;;;;;;;5055110;28;20029;-66
2021/11/16 10:21:06;;;;;;;3.45;0.45;;;;;;;;;;5054907;28;20017;-67
2021/11/16 10:23:36;;;;;;;3.40;0.47;;;;;;;;;;5054975;28;20096;-66
2021/11/16 10:26:02;;;;;;;2.72;0.55;;;;;;;;;;5053649;28;20021;-67
2021/11/16 10:28:30;;;;;;;0.85;0.15;;;;;;;;;;5054775;28;20017;-66
2021/11/16 10:30:58;;;;;;;0.75;0.30;;;;;;;;;;5054630;28;20555;-66
2021/11/16 10:33:34;;;;;;;1.10;0.25;;;;;;;;;;5054547;28;20028;-67
2021/11/16 10:36:00;;;;;;;2.45;0.30;;;;;;;;;;5054741;28;20024;-66
2021/11/16 10:38:26;;;;;;;1.23;0.22;;;;;;;;;;5054586;28;20028;-68
2021/11/16 10:40:55;;;;;;;1.88;0.50;;;;;;;;;;5054576;28;20051;-65
2021/11/16 10:43:22;;;;;;;1.00;0.25;;;;;;;;;;5054640;28;20028;-68
2021/11/16 10:45:49;;;;;;;6.03;0.80;;;;;;;;;;5054503;28;20039;-66
2021/11/16 10:48:18;;;;;;;1.30;0.30;;;;;;;;;;5054561;28;20379;-69
2021/11/16 10:50:46;;;;;;;3.13;0.60;;;;;;;;;;5053842;28;20017;-66
2021/11/16 10:53:14;;;;;;;3.58;0.40;;;;;;;;;;5059133;28;20025;-65
2021/11/16 10:55:48;;;;;;;5.60;0.60;;;;;;;;;;5056351;28;20024;-68
2021/11/16 10:58:17;;;;;;;1.98;0.50;;;;;;;;;;5052935;28;20053;-66
2021/11/16 11:00:50;;;;;;;1.80;0.20;;;;;;;;;;5054106;28;20067;-68
2021/11/16 11:03:18;;;;;;;2.88;0.55;;;;;;;;;;5053867;28;20045;-66
2021/11/16 11:05:45;;;;;;;2.38;0.88;;;;;;;;;;5053028;28;20025;-68
2021/11/16 11:08:11;;;;;;;0.52;0.08;;;;;;;;;;5053697;28;20712;-66
2021/11/16 11:10:46;;;;;;;1.60;0.20;;;;;;;;;;5054120;28;20025;-67
2021/11/16 11:13:21;;;;;;;1.52;0.50;;;;;;;;;;5053855;28;20025;-68
2021/11/16 11:15:47;;;;;;;1.17;0.47;;;;;;;;;;5053896;28;20482;-66
2021/11/16 11:18:12;;;;;;;3.58;0.32;;;;;;;;;;5054004;28;20013;-67
2021/11/16 11:20:39;;;;;;;1.03;0.30;;;;;;;;;;5053713;28;20045;-67
2021/11/16 11:23:23;;;;;;;2.03;0.57;;;;;;;;;;5053473;28;20707;-68
2021/11/16 11:25:50;;;;;;;2.55;0.47;;;;;;;;;;5053606;28;20025;-66
2021/11/16 11:28:33;;;;;;;3.30;0.40;;;;;;;;;;5053803;28;20013;-65
2021/11/16 11:30:59;;;;;;;2.15;0.22;;;;;;;;;;5052403;28;20041;-68
2021/11/16 11:33:44;;;;;;;3.55;0.47;;;;;;;;;;5053758;28;20522;-67
2021/11/16 11:36:20;;;;;;;3.78;0.63;;;;;;;;;;5053550;28;20092;-68
2021/11/16 11:38:45;;;;;;;2.20;0.63;;;;;;;;;;5053358;28;20013;-67
2021/11/16 11:41:10;;;;;;;1.55;0.25;;;;;;;;;;5053196;28;20035;-67
2021/11/16 11:43:35;;;;;;;1.37;0.30;;;;;;;;;;5053461;28;20422;-68
2021/11/16 11:46:00;;;;;;;2.92;0.30;;;;;;;;;;5053520;28;20250;-66
2021/11/16 11:48:27;;;;;;;1.45;0.40;;;;;;;;;;5053691;28;20456;-69
2021/11/16 11:50:57;;;;;;;1.92;0.40;;;;;;;;;;5053380;28;20021;-67
2021/11/16 11:53:29;;;;;;;2.63;0.40;;;;;;;;;;5052205;28;20509;-67
2021/11/16 11:55:56;;;;;;;3.85;0.52;;;;;;;;;;5053118;28;20049;-68
2021/11/16 11:58:22;;;;;;;2.88;0.50;;;;;;;;;;5053237;28;20116;-67
2021/11/16 12:00:50;;;;;;;1.33;0.20;;;;;;;;;;5053329;28;20475;-67
2021/11/16 12:03:15;;;;;;;1.20;0.45;;;;;;;;;;5053296;28;20045;-66
2021/11/16 12:05:42;;;;;;;0.60;0.20;;;;;;;;;;5053219;28;20028;-68
2021/11/16 12:08:09;;;;;;;1.35;0.35;;;;;;;;;;5053037;28;20025;-66
2021/11/16 12:10:35;;;;;;;1.88;0.20;;;;;;;;;;5053267;28;20523;-67
2021/11/16 12:13:00;;;;;;;1.27;0.35;;;;;;;;;;5052035;28;20111;-67
2021/11/16 12:15:36;;;;;;;1.13;0.40;;;;;;;;;;5052948;28;20025;-65
2021/11/16 12:18:03;;;;;;;1.00;0.25;;;;;;;;;;5057114;28;20021;-68
2021/11/16 12:20:52;;;;;;;1.45;0.20;;;;;;;;;;5057435;28;20029;-66
2021/11/16 12:23:18;;;;;;;1.23;0.45;;;;;;;;;;5059373;28;20017;-67
2021/11/16 12:25:45;;;;;;;1.05;0.22;;;;;;;;;;5058930;28;20053;-68
2021/11/16 12:28:26;;;;;;;1.90;0.20;;;;;;;;;;5058644;28;20614;-66
2021/11/16 12:30:52;;;;;;;3.10;0.47;;;;;;;;;;5059093;28;20029;-69
2021/11/16 12:33:36;;;;;;;2.78;0.40;;;;;;;;;;5058737;28;20032;-66
2021/11/16 12:36:02;;;;;;;2.95;0.52;;;;;;;;;;5076370;28;20024;-67
2021/11/16 12:38:37;;;;;;;2.05;0.60;;;;;;;;;;5058256;28;20017;-67
2021/11/16 12:41:22;;;;;;;1.33;0.45;;;;;;;;;;5058809;28;20648;-67
2021/11/16 12:43:47;;;;;;;2.20;0.60;;;;;;;;;;5057628;28;20019;-68
2021/11/16 12:46:17;;;;;;;2.63;0.80;;;;;;;;;;5060170;28;20104;-66
2021/11/16 12:48:49;;;;;;;5.00;1.00;;;;;;;;;;5060499;28;20028;-68
2021/11/16 12:51:15;;;;;;;1.80;0.75;;;;;;;;;;5055119;28;20044;-66
2021/11/16 12:53:47;;;;;;;1.52;0.47;;;;;;;;;;5059382;28;20020;-68
2021/11/16 12:56:13;;;;;;;4.82;0.95;;;;;;;;;;5060862;28;20032;-68
2021/11/16 12:58:48;;;;;;;4.10;0.70;;;;;;;;;;5063319;28;20459;-63
2021/11/16 13:01:32;;;;;;;2.45;0.70;;;;;;;;;;5057498;28;20491;-67
2021/11/16 13:03:57;;;;;;;1.55;0.68;;;;;;;;;;5038044;28;20375;-66
2021/11/16 13:06:24;;;;;;;3.72;1.42;;;;;;;;;;5059173;28;20021;-69
2021/11/16 13:08:50;;;;;;;3.42;1.13;;;;;;;;;;5061708;28;20063;-66
2021/11/16 13:11:36;;;;;;;1.88;0.30;;;;;;;;;;5075554;28;20019;-67
2021/11/16 13:14:01;;;;;;;1.10;0.50;;;;;;;;;;5058272;28;20098;-67
2021/11/16 13:16:26;;;;;;;3.05;0.40;;;;;;;;;;5071860;28;20427;-66
2021/11/16 13:18:55;;;;;;;2.05;0.55;;;;;;;;;;5069798;28;20412;-67
2021/11/16 13:21:21;;;;;;;2.95;0.70;;;;;;;;;;5061180;28;20020;-67
2021/11/16 13:23:50;;;;;;;1.92;0.65;;;;;;;;;;5059975;28;20088;-68
2021/11/16 13:26:19;;;;;;;2.25;0.93;;;;;;;;;;5058914;28;20033;-67
2021/11/16 13:31:36;;;;;;;2.92;0.93;;;;;;;;;;5056916;28;20029;-67
2021/11/16 13:34:03;;;;;;;3.20;0.43;;;;;;;;;;5059797;28;20024;-67
2021/11/16 13:36:28;;;;;;;1.27;0.25;;;;;;;;;;5070626;28;20009;-67
2021/11/16 13:39:00;;;;;;;1.30;0.38;;;;;;;;;;5060625;28;20451;-67
2021/11/16 13:41:44;;;;;;;1.85;0.32;;;;;;;;;;5054618;28;20021;-67
2021/11/16 13:44:30;;;;;;;1.70;0.40;;;;;;;;;;5056376;28;20021;-68
2021/11/16 13:47:11;;;;;;;1.33;0.47;;;;;;;;;;5055725;28;20041;-67
2021/11/16 13:49:42;;;;;;;3.80;0.68;;;;;;;;;;5053961;28;20021;-69
2021/11/16 13:52:10;;;;;;;2.78;0.55;;;;;;;;;;5060483;28;20024;-67
2021/11/16 13:54:36;;;;;;;1.50;0.43;;;;;;;;;;5061314;28;20031;-69
2021/11/16 13:57:03;;;;;;;2.22;0.65;;;;;;;;;;5058099;28;20009;-67
2021/11/16 13:59:29;;;;;;;2.35;0.63;;;;;;;;;;5049112;28;20021;-66
2021/11/16 14:01:56;;;;;;;1.35;0.20;;;;;;;;;;5055317;28;20071;-68
2021/11/16 14:04:21;;;;;;;2.53;0.40;;;;;;;;;;5054465;28;20024;-67
2021/11/16 14:06:48;;;;;;;0.82;0.40;;;;;;;;;;5053155;28;20375;-69
2021/11/16 14:09:15;;;;;;;3.20;0.43;;;;;;;;;;5056676;28;20016;-67
2021/11/16 14:11:54;;;;;;;1.30;0.30;;;;;;;;;;5062418;28;20045;-70
2021/11/16 14:14:21;;;;;;;1.90;0.57;;;;;;;;;;5058298;28;20119;-69
2021/11/16 14:16:47;;;;;;;2.08;0.50;;;;;;;;;;5054699;28;20025;-70
2021/11/16 14:19:24;;;;;;;1.55;0.32;;;;;;;;;;5052671;28;20043;-70
2021/11/16 14:21:51;;;;;;;1.73;0.43;;;;;;;;;;5052154;28;20022;-70
2021/11/16 14:24:32;;;;;;;1.55;0.30;;;;;;;;;;5054125;28;20025;-70
2021/11/16 14:26:57;;;;;;;2.70;0.47;;;;;;;;;;5053661;28;20456;-70
2021/11/16 14:29:23;;;;;;;2.85;0.45;;;;;;;;;;5056809;28;20051;-70
2021/11/16 14:31:49;;;;;;;2.15;0.40;;;;;;;;;;5065920;28;20029;-71
2021/11/16 14:34:22;;;;;;;2.97;0.82;;;;;;;;;;5054689;28;20033;-70
2021/11/16 14:36:49;;;;;;;5.03;0.63;;;;;;;;;;5062590;28;20321;-70
2021/11/16 14:39:19;;;;;;;1.98;0.43;;;;;;;;;;5053651;28;20027;-70
2021/11/16 14:41:46;;;;;;;2.05;0.60;;;;;;;;;;5052848;28;20092;-70
2021/11/16 14:44:12;;;;;;;2.50;0.40;;;;;;;;;;5054696;28;20036;-70
2021/11/16 14:46:38;;;;;;;1.83;0.30;;;;;;;;;;5057973;28;20055;-71
2021/11/16 14:49:07;;;;;;;3.83;0.30;;;;;;;;;;5053704;28;20031;-70
2021/11/16 14:51:35;;;;;;;2.20;0.55;;;;;;;;;;5054115;28;20021;-69
2021/11/16 14:54:04;;;;;;;1.85;0.30;;;;;;;;;;5053496;28;20116;-68
2021/11/16 14:56:34;;;;;;;1.10;0.40;;;;;;;;;;5053278;28;20530;-69
2021/11/16 14:59:01;;;;;;;1.83;0.32;;;;;;;;;;5049960;28;20425;-68
2021/11/16 15:01:28;;;;;;;1.63;0.20;;;;;;;;;;5054428;28;20044;-70
2021/11/16 15:03:58;;;;;;;3.47;1.20;;;;;;;;;;5053248;28;20033;-69
2021/11/16 15:06:25;;;;;;;3.35;0.60;;;;;;;;;;5056578;28;20029;-70
2021/11/16 15:08:50;;;;;;;1.33;0.30;;;;;;;;;;5055975;28;20134;-69